Aviation Digital Data Service (ADDS)

Output produced by METARs form (0531 UTC 23 August 2014)
found at http://aviationweather.gov/adds/metars/
 
KACK 222344Z 2300/2324 06011KT P6SM BKN080 
     FM230500 07010KT 5SM BR OVC040 
     FM230700 06010KT P6SM OVC015 
     FM230900 05011KT P6SM OVC025 
     FM231500 04013KT P6SM BKN035 
     FM232200 05012KT P6SM BKN020